createdAt,value
2019-05-03T00:02:06.951Z,94299.84
2019-05-03T00:05:29.556Z,94294.56
2019-05-03T00:08:37.351Z,94295.19
2019-05-03T00:11:45.325Z,94289.15
2019-05-03T00:14:56.644Z,94284.94
2019-05-03T00:18:04.507Z,94272.86
2019-05-03T00:21:12.125Z,94281.67
2019-05-03T00:24:19.768Z,94275.17
2019-05-03T00:27:28.526Z,94272.54
2019-05-03T00:30:36.028Z,94272.11
2019-05-03T00:33:45.319Z,94270.22
2019-05-03T00:36:56.360Z,94277.94
2019-05-03T00:40:06.564Z,94273.08
2019-05-03T00:43:14.038Z,94273.95
2019-05-03T00:46:22.072Z,94266.23
2019-05-03T00:49:31.993Z,94266.58
2019-05-03T00:52:39.668Z,94265.36
2019-05-03T00:55:47.681Z,94261.64
2019-05-03T00:58:58.350Z,94266.27
2019-05-03T01:02:05.724Z,94261.86
2019-05-03T01:05:13.545Z,94262.08
2019-05-03T01:08:22.061Z,94260.95
2019-05-03T01:11:29.726Z,94255.58
2019-05-03T01:14:39.102Z,94252.95
2019-05-03T01:17:50.030Z,94252.59
2019-05-03T01:20:57.492Z,94244.23
2019-05-03T01:24:05.147Z,94241.57
2019-05-03T01:27:12.666Z,94239.72
2019-05-03T01:30:20.260Z,94238.59
2019-05-03T01:33:27.910Z,94239.81
2019-05-03T01:36:35.403Z,94240.27
2019-05-03T01:39:42.800Z,94239.49
2019-05-03T01:42:51.853Z,94241.91
2019-05-03T01:46:02.534Z,94234.88
2019-05-03T01:49:19.271Z,94240.05
2019-05-03T01:52:32.445Z,94236.95
2019-05-03T01:55:52.319Z,94230.02
2019-05-03T01:59:01.708Z,94235.97
2019-05-03T02:02:28.315Z,94231.66
2019-05-03T02:05:43.139Z,94235.53
2019-05-03T02:08:52.169Z,94235.30
2019-05-03T02:11:59.776Z,94235.09
2019-05-03T02:15:07.882Z,94229.80
2019-05-03T02:18:15.383Z,94236.70
2019-05-03T02:21:22.753Z,94234.38
2019-05-03T02:24:30.110Z,94236.70
2019-05-03T02:27:37.662Z,94231.68
2019-05-03T02:30:44.921Z,94229.47
2019-05-03T02:33:53.349Z,94232.44
2019-05-03T02:37:02.929Z,94228.58
2019-05-03T02:40:12.992Z,94233.42
2019-05-03T02:43:27.527Z,94235.43
2019-05-03T02:46:57.225Z,94232.66
2019-05-03T02:50:11.823Z,94237.17
2019-05-03T02:53:19.468Z,94237.03
2019-05-03T02:56:27.025Z,94233.41
2019-05-03T02:59:34.802Z,94232.96
2019-05-03T03:02:45.414Z,94226.38
2019-05-03T03:05:57.358Z,94224.51
2019-05-03T03:09:06.228Z,94235.76
2019-05-03T03:12:15.278Z,94229.23
2019-05-03T03:15:25.695Z,94232.77
2019-05-03T03:18:38.231Z,94235.16
2019-05-03T03:21:48.610Z,94226.50
2019-05-03T03:24:59.399Z,94224.07
2019-05-03T03:28:11.414Z,94225.60
2019-05-03T03:32:09.029Z,94223.60
2019-05-03T03:35:29.082Z,94224.51
2019-05-03T03:38:35.397Z,94224.17
2019-05-03T03:41:45.817Z,94227.83
2019-05-03T03:44:56.246Z,94228.59
2019-05-03T03:48:05.272Z,94230.13
2019-05-03T03:51:17.153Z,94233.88
2019-05-03T03:54:26.029Z,94228.57
2019-05-03T03:57:35.696Z,94234.74
2019-05-03T04:00:46.228Z,94239.15
2019-05-03T04:03:56.193Z,94241.50
2019-05-03T04:07:06.528Z,94246.98
2019-05-03T04:10:15.686Z,94252.27
2019-05-03T04:13:25.537Z,94249.06
2019-05-03T04:16:45.497Z,94249.53
2019-05-03T04:19:55.904Z,94257.24
2019-05-03T04:23:05.288Z,94260.09
2019-05-03T04:26:16.010Z,94263.74
2019-05-03T04:29:52.014Z,94264.51
2019-05-03T04:33:00.121Z,94269.13
2019-05-03T04:36:09.579Z,94275.42
2019-05-03T04:39:20.235Z,94274.65
2019-05-03T04:42:27.080Z,94278.97
2019-05-03T04:45:36.608Z,94277.09
2019-05-03T04:48:44.906Z,94282.80
2019-05-03T04:51:52.721Z,94277.08
2019-05-03T04:55:00.281Z,94278.95
2019-05-03T04:58:07.552Z,94284.25
2019-05-03T05:01:15.760Z,94284.80
2019-05-03T05:04:25.381Z,94283.79
2019-05-03T05:07:34.868Z,94289.84
2019-05-03T05:10:42.018Z,94294.69
2019-05-03T05:13:49.301Z,94293.00
2019-05-03T05:16:56.474Z,94297.48
2019-05-03T05:20:14.530Z,94295.38
2019-05-03T05:23:22.212Z,94303.74
2019-05-03T05:26:42.119Z,94300.09
2019-05-03T05:29:49.987Z,94300.76
2019-05-03T05:32:57.654Z,94302.50
2019-05-03T05:36:05.400Z,94303.91
2019-05-03T05:39:18.589Z,94309.84
2019-05-03T05:42:25.174Z,94312.15
2019-05-03T05:45:34.832Z,94314.80
2019-05-03T05:48:47.726Z,94321.41
2019-05-03T12:53:24.869Z,94377.09
2019-05-03T12:56:33.586Z,94375.05
2019-05-03T13:00:02.376Z,94366.52
2019-05-03T13:03:15.215Z,94367.05
2019-05-03T13:06:22.554Z,94363.03
2019-05-03T13:09:30.137Z,94353.51
2019-05-03T13:12:49.708Z,94361.20
2019-05-03T13:15:47.656Z,94362.57
2019-05-03T13:18:55.446Z,94363.13
2019-05-03T13:22:03.084Z,94372.14
2019-05-03T13:25:11.901Z,94368.81
2019-05-03T13:28:19.684Z,94361.07
2019-05-03T13:31:27.289Z,94362.30
2019-05-03T13:34:35.455Z,94365.47
2019-05-03T13:37:45.087Z,94361.90
2019-05-03T13:40:54.388Z,94366.92
2019-05-03T13:44:02.268Z,94360.67
2019-05-03T13:47:10.090Z,94367.27
2019-05-03T13:50:17.672Z,94365.27
2019-05-03T13:53:25.434Z,94360.63
2019-05-03T13:56:35.163Z,94359.94
2019-05-03T13:59:44.840Z,94365.07
2019-05-03T14:02:52.532Z,94359.52
2019-05-03T14:06:00.388Z,94358.47
2019-05-03T14:09:08.057Z,94347.74
2019-05-03T14:12:17.428Z,94344.29
2019-05-03T14:15:25.506Z,94349.08
2019-05-03T14:18:35.189Z,94350.11
2019-05-03T14:21:47.518Z,94346.91
2019-05-03T14:24:55.616Z,94347.08
2019-05-03T14:28:05.330Z,94351.57
2019-05-03T14:31:14.397Z,94351.33
2019-05-03T14:34:22.307Z,94359.45
2019-05-03T14:37:30.750Z,94354.95
2019-05-03T14:40:41.801Z,94350.18
2019-05-03T14:43:50.284Z,94347.00
2019-05-03T14:46:59.215Z,94348.35
2019-05-03T14:50:07.604Z,94339.45
2019-05-03T14:53:15.058Z,94338.95
2019-05-03T14:56:32.092Z,94337.69
2019-05-03T15:00:16.929Z,94337.53
2019-05-03T15:03:25.560Z,94341.72
2019-05-03T15:06:35.272Z,94346.08
2019-05-03T15:09:43.119Z,94347.16
2019-05-03T15:12:50.846Z,94349.23
2019-05-03T15:15:58.214Z,94354.66
2019-05-03T15:19:05.882Z,94353.98
2019-05-03T15:22:14.650Z,94353.22
2019-05-03T15:25:25.106Z,94353.40
2019-05-03T15:28:35.667Z,94353.42
2019-05-03T15:31:45.191Z,94362.56
2019-05-03T15:34:55.177Z,94357.14
2019-05-03T15:38:02.482Z,94361.62
2019-05-03T15:41:09.887Z,94366.78
2019-05-03T15:44:29.947Z,94362.95
2019-05-03T15:47:42.716Z,94360.23
2019-05-03T15:50:50.658Z,94355.28
2019-05-03T15:53:58.039Z,94355.38
2019-05-03T15:57:05.550Z,94356.75
2019-05-03T16:00:15.353Z,94350.18
2019-05-03T16:03:22.815Z,94347.58
2019-05-03T16:06:30.283Z,94346.05
2019-05-03T16:09:37.567Z,94349.13
2019-05-03T16:12:45.403Z,94349.25
2019-05-03T16:15:55.043Z,94341.45
2019-05-03T16:19:05.289Z,94344.61
2019-05-03T16:22:14.396Z,94342.23
2019-05-03T16:25:22.455Z,94343.66
2019-05-03T16:28:36.805Z,94341.07
2019-05-03T16:31:45.029Z,94342.61
2019-05-03T16:34:52.720Z,94338.13
2019-05-03T16:38:00.106Z,94340.06
2019-05-03T16:41:08.311Z,94339.94
2019-05-03T16:44:16.627Z,94339.40
2019-05-03T16:47:24.973Z,94336.98
2019-05-03T16:50:34.584Z,94334.97
2019-05-03T16:53:44.358Z,94333.78
2019-05-03T16:56:52.113Z,94337.63
2019-05-03T16:59:59.656Z,94331.81
2019-05-03T17:03:08.012Z,94327.69
2019-05-03T17:06:45.200Z,94327.50
2019-05-03T17:10:15.327Z,94326.02
2019-05-03T17:13:22.882Z,94325.95
2019-05-03T17:16:30.313Z,94325.22
2019-05-03T17:19:37.675Z,94328.83
2019-05-03T17:22:45.554Z,94325.99
2019-05-03T17:25:53.224Z,94329.97
2019-05-03T17:29:01.198Z,94330.69
2019-05-03T17:32:10.915Z,94336.73
2019-05-03T17:35:18.041Z,94340.13
2019-05-03T17:38:25.912Z,94339.86
2019-05-03T17:41:51.912Z,94341.93
2019-05-03T17:44:59.507Z,94342.07
2019-05-03T17:48:07.221Z,94347.09
2019-05-03T17:51:35.128Z,94349.58
2019-05-03T17:55:02.437Z,94352.48
2019-05-03T17:58:17.810Z,94346.34
2019-05-03T18:01:51.025Z,94349.72
2019-05-03T18:05:18.333Z,94352.27
2019-05-03T18:08:32.487Z,94351.88
2019-05-03T18:11:42.644Z,94353.25
2019-05-03T18:14:50.152Z,94351.31
2019-05-03T18:17:57.665Z,94351.27
2019-05-03T18:21:05.120Z,94352.77
2019-05-03T18:24:12.631Z,94356.97
2019-05-03T18:27:20.278Z,94366.03
2019-05-03T18:30:28.034Z,94365.67
2019-05-03T18:33:35.631Z,94369.23
2019-05-03T18:36:45.024Z,94371.88
2019-05-03T18:39:54.496Z,94377.07
2019-05-03T18:43:07.571Z,94374.65
2019-05-03T18:46:24.575Z,94373.89
2019-05-03T18:49:32.147Z,94367.28
2019-05-03T18:52:40.165Z,94369.58
2019-05-03T18:55:47.496Z,94378.53
2019-05-03T18:58:54.939Z,94381.39
2019-05-03T19:02:02.640Z,94381.06
2019-05-03T19:05:10.585Z,94391.27
2019-05-03T19:08:42.340Z,94393.83
2019-05-03T19:12:08.667Z,94395.72
2019-05-03T19:15:16.038Z,94400.24
2019-05-03T19:18:41.459Z,94404.13
2019-05-03T19:21:49.986Z,94401.48
2019-05-03T19:24:57.694Z,94406.33
2019-05-03T19:28:07.837Z,94414.39
2019-05-03T19:31:15.095Z,94413.39
2019-05-03T19:34:24.262Z,94415.94
2019-05-03T19:37:32.305Z,94415.46
2019-05-03T19:40:40.114Z,94422.33
2019-05-03T19:43:47.494Z,94417.03
2019-05-03T19:46:55.083Z,94417.03
2019-05-03T19:50:05.071Z,94413.29
2019-05-03T19:53:20.636Z,94419.79
2019-05-03T19:56:28.549Z,94423.21
2019-05-03T19:59:56.500Z,94416.46
2019-05-03T20:03:12.127Z,94419.23
2019-05-03T20:06:26.538Z,94415.69
2019-05-03T20:09:35.008Z,94417.79
2019-05-03T20:12:42.265Z,94412.63
2019-05-03T20:15:49.586Z,94407.65
2019-05-03T20:18:57.569Z,94403.67
2019-05-03T20:22:05.227Z,94406.10
2019-05-03T20:25:12.829Z,94412.39
2019-05-03T20:28:20.287Z,94415.91
2019-05-03T20:31:27.852Z,94412.17
2019-05-03T20:34:36.602Z,94409.62
2019-05-03T20:37:44.876Z,94407.10
2019-05-03T20:40:55.361Z,94404.00
2019-05-03T20:44:21.670Z,94398.91
2019-05-03T20:47:32.148Z,94406.52
2019-05-03T20:50:39.448Z,94402.77
2019-05-03T20:53:46.786Z,94397.94
2019-05-03T20:56:54.658Z,94392.19
2019-05-03T21:00:04.536Z,94391.97
2019-05-03T21:03:12.409Z,94388.67
2019-05-03T21:06:32.446Z,94391.73
2019-05-03T21:09:29.021Z,94391.09
2019-05-03T21:12:36.672Z,94391.50
2019-05-03T21:15:54.736Z,94397.70
2019-05-03T21:19:21.731Z,94399.52
2019-05-03T21:22:35.421Z,94396.34
2019-05-03T21:26:06.459Z,94394.16
2019-05-03T21:29:00.627Z,94394.14
2019-05-03T21:32:08.214Z,94391.82
2019-05-03T21:35:16.544Z,94390.08
2019-05-03T21:38:24.963Z,94391.95
2019-05-03T21:41:37.942Z,94393.92
2019-05-03T21:44:46.200Z,94387.31
2019-05-03T21:48:11.140Z,94391.36
2019-05-03T21:51:20.174Z,94391.95
2019-05-03T21:54:27.714Z,94384.13
2019-05-03T21:57:34.958Z,94389.95
2019-05-03T22:01:01.720Z,94385.34
2019-05-03T22:04:09.453Z,94387.67
2019-05-03T22:07:16.836Z,94384.25
2019-05-03T22:10:25.535Z,94391.64
2019-05-03T22:13:34.861Z,94390.31
2019-05-03T22:17:14.956Z,94385.36
2019-05-03T22:20:29.340Z,94389.23
2019-05-03T22:24:08.329Z,94391.64
2019-05-03T22:27:16.496Z,94388.90
2019-05-03T22:30:24.673Z,94390.45
2019-05-03T22:33:33.110Z,94377.95
2019-05-03T22:36:40.253Z,94381.61
2019-05-03T22:39:47.719Z,94374.86
2019-05-03T22:42:55.114Z,94372.02
2019-05-03T22:46:02.586Z,94365.40
2019-05-03T22:49:09.967Z,94357.89
2019-05-03T22:52:17.205Z,94353.50
2019-05-03T22:55:24.686Z,94349.39
2019-05-03T22:58:32.323Z,94347.80
2019-05-03T23:01:39.852Z,94342.23
2019-05-03T23:04:47.350Z,94337.23
2019-05-03T23:07:55.226Z,94337.06
2019-05-03T23:11:05.131Z,94338.02
2019-05-03T23:14:12.439Z,94342.75
2019-05-03T23:17:19.692Z,94336.61
2019-05-03T23:20:37.440Z,94329.17
2019-05-03T23:23:48.302Z,94324.32
2019-05-03T23:26:55.860Z,94322.84
2019-05-03T23:30:04.955Z,94312.48
2019-05-03T23:33:12.911Z,94311.81
2019-05-03T23:36:32.820Z,94308.48
2019-05-03T23:39:31.240Z,94309.15
2019-05-03T23:42:38.710Z,94300.81
2019-05-03T23:45:46.896Z,94297.97
2019-05-03T23:48:54.253Z,94288.54
2019-05-03T23:52:07.492Z,94282.72
2019-05-03T23:55:25.253Z,94283.13
2019-05-03T23:58:35.161Z,94281.41
